Time;durP1;ratioP1;P1;durP2;ratioP2;P2;SDS_P1;SDS_P2;PMS_P1;PMS_P2;Temp;Humidity;BMP_temperature;BMP_pressure;BME280_temperature;BME280_humidity;BME280_pressure;Samples;Min_cycle;Max_cycle;Signal;HPM_P1;HPM_P2
2023/05/02 00:01:45;;;;;;;6.20;5.53;;;;;;;11.07;93.57;100506.28;5014243;28;20647;-79
2023/05/02 00:04:11;;;;;;;7.17;5.40;;;;;;;11.04;94.66;100502.88;5014840;28;20595;-78
2023/05/02 00:06:37;;;;;;;6.00;5.40;;;;;;;11.01;95.58;100479.44;5013859;28;20619;-79
2023/05/02 00:09:04;;;;;;;6.87;6.27;;;;;;;11.09;95.71;100469.69;5014806;28;20485;-80
2023/05/02 00:11:30;;;;;;;6.47;5.87;;;;;;;11.11;94.68;100478.34;5014235;28;20311;-78
2023/05/02 00:13:56;;;;;;;6.37;5.77;;;;;;;11.07;93.66;100488.00;5014293;28;20235;-78
2023/05/02 00:16:24;;;;;;;6.73;5.80;;;;;;;11.13;93.05;100516.63;5014143;28;20230;-79
2023/05/02 00:18:50;;;;;;;5.23;4.83;;;;;;;11.16;91.60;100540.94;5015326;28;20253;-79
2023/05/02 00:21:17;;;;;;;5.50;5.00;;;;;;;11.12;92.54;100543.66;5014534;28;20226;-79
2023/05/02 00:23:43;;;;;;;5.37;4.97;;;;;;;11.03;92.00;100569.94;5014392;28;20236;-79
2023/05/02 00:26:09;;;;;;;4.90;4.40;;;;;;;11.04;90.75;100584.72;5014101;28;20628;-79
2023/05/02 00:28:36;;;;;;;5.53;5.07;;;;;;;11.21;91.60;100581.78;5014634;28;20207;-78
2023/05/02 00:31:04;;;;;;;5.60;5.20;;;;;;;11.10;92.81;100571.56;5014429;28;20219;-80
2023/05/02 00:33:31;;;;;;;6.47;5.70;;;;;;;11.21;92.92;100557.41;5013807;28;20317;-80
2023/05/02 00:35:57;;;;;;;5.30;4.83;;;;;;;11.25;91.62;100573.00;5015361;28;20203;-79
2023/05/02 00:38:24;;;;;;;5.63;5.00;;;;;;;11.28;90.95;100569.47;5015588;28;20206;-80
2023/05/02 00:40:52;;;;;;;6.00;4.80;;;;;;;11.30;91.07;100586.84;5015672;28;20227;-79
2023/05/02 00:43:18;;;;;;;5.20;4.77;;;;;;;11.33;90.70;100596.38;5020346;28;20322;-80
2023/05/02 00:45:46;;;;;;;5.50;4.93;;;;;;;11.37;88.23;100642.44;5032182;28;20220;-79
2023/05/02 00:48:12;;;;;;;5.33;4.83;;;;;;;11.47;91.00;100624.84;5031139;28;20203;-79
2023/05/02 00:50:42;;;;;;;4.80;4.40;;;;;;;11.46;92.05;100597.00;5030979;28;20195;-79
2023/05/02 00:53:10;;;;;;;5.83;5.13;;;;;;;11.33;89.60;100625.09;5030582;28;20211;-78
2023/05/02 00:55:37;;;;;;;5.70;5.17;;;;;;;11.53;92.49;100588.13;5023090;28;20206;-80
2023/05/02 00:58:07;;;;;;;5.10;4.60;;;;;;;11.55;91.25;100575.88;5035973;28;20222;-80
2023/05/02 01:00:47;;;;;;;4.90;4.50;;;;;;;11.69;91.95;100565.13;5033228;28;20246;-79
2023/05/02 01:03:20;;;;;;;4.60;4.20;;;;;;;11.80;92.10;100562.31;5019336;28;20207;-79
2023/05/02 01:05:58;;;;;;;4.33;4.03;;;;;;;11.85;93.65;100537.75;5018805;28;20212;-78
2023/05/02 01:08:34;;;;;;;5.83;5.33;;;;;;;11.78;91.02;100536.16;5018447;28;20211;-79
2023/05/02 01:11:05;;;;;;;5.00;4.60;;;;;;;11.75;90.89;100587.69;5018694;28;20208;-79
2023/05/02 01:13:33;;;;;;;5.13;4.73;;;;;;;11.49;88.69;100623.91;5018779;28;20260;-79
2023/05/02 01:16:03;;;;;;;5.07;4.57;;;;;;;11.26;88.96;100631.38;5018825;28;20609;-78
2023/05/02 01:18:32;;;;;;;5.57;5.17;;;;;;;11.31;91.02;100603.38;5018247;28;20664;-79
2023/05/02 01:21:02;;;;;;;5.30;4.80;;;;;;;11.41;91.41;100584.00;5017441;28;20227;-80
2023/05/02 01:23:38;;;;;;;5.80;5.30;;;;;;;11.30;91.46;100583.38;5018260;28;20230;-79
2023/05/02 01:26:15;;;;;;;5.57;5.17;;;;;;;11.22;92.28;100585.25;5016964;28;20210;-79
2023/05/02 01:28:55;;;;;;;6.00;5.50;;;;;;;11.10;94.31;100545.44;5016786;28;20599;-79
2023/05/02 01:31:23;;;;;;;7.27;5.90;;;;;;;11.20;94.25;100527.81;5016747;28;20210;-79
2023/05/02 01:33:52;;;;;;;6.37;5.87;;;;;;;11.27;94.70;100516.34;5017228;28;20287;-78
2023/05/02 01:36:20;;;;;;;7.27;5.20;;;;;;;11.19;93.78;100510.41;5016855;28;20233;-78
2023/05/02 01:38:48;;;;;;;6.43;5.93;;;;;;;11.04;94.40;100505.47;5017537;28;20256;-78
2023/05/02 01:41:16;;;;;;;6.50;5.90;;;;;;;10.92;96.28;100488.31;5016299;28;20274;-79
2023/05/02 01:43:43;;;;;;;6.57;6.07;;;;;;;10.80;98.09;100457.22;5016364;28;20261;-79
2023/05/02 01:46:13;;;;;;;7.63;6.83;;;;;;;10.77;99.22;100433.78;5016492;28;20203;-77
2023/05/02 01:48:41;;;;;;;8.30;6.73;;;;;;;10.65;99.75;100416.63;5016227;28;20202;-79
2023/05/02 01:51:08;;;;;;;9.43;7.70;;;;;;;10.67;99.78;100417.44;5016256;28;20198;-78
2023/05/02 01:53:36;;;;;;;6.97;6.47;;;;;;;10.73;98.60;100436.44;5016401;28;20305;-78
2023/05/02 01:56:03;;;;;;;7.67;7.07;;;;;;;10.76;98.94;100451.19;5016378;28;20219;-78
2023/05/02 01:58:32;;;;;;;8.17;7.40;;;;;;;10.68;99.77;100442.66;5016059;28;20285;-79
2023/05/02 02:01:00;;;;;;;8.63;7.70;;;;;;;10.68;98.96;100443.53;5016491;28;20219;-78
2023/05/02 02:03:30;;;;;;;9.33;8.27;;;;;;;10.67;98.74;100457.44;5015746;28;20233;-78
2023/05/02 02:05:58;;;;;;;10.80;9.07;;;;;;;10.71;96.92;100481.75;5016956;28;20238;-78
2023/05/02 02:08:25;;;;;;;9.70;8.80;;;;;;;10.69;96.15;100509.66;5016351;28;20206;-79
2023/05/02 02:10:57;;;;;;;10.17;9.20;;;;;;;10.73;94.72;100535.66;5015863;28;20203;-79
2023/05/02 02:13:29;;;;;;;10.20;9.23;;;;;;;10.73;94.79;100553.94;5016388;28;20211;-78
2023/05/02 02:15:59;;;;;;;11.13;10.23;;;;;;;10.83;94.76;100566.84;5016023;28;20209;-78
2023/05/02 02:18:27;;;;;;;11.10;10.20;;;;;;;10.74;94.92;100562.63;5015899;28;20211;-78
2023/05/02 02:20:58;;;;;;;12.63;11.40;;;;;;;10.69;95.25;100552.28;5015340;28;20229;-78
2023/05/02 02:23:27;;;;;;;12.47;11.13;;;;;;;10.68;96.10;100544.47;5015683;28;20278;-78
2023/05/02 02:25:56;;;;;;;15.60;12.50;;;;;;;10.63;96.13;100549.78;5016127;28;20203;-78
2023/05/02 02:28:22;;;;;;;14.63;13.27;;;;;;;10.61;97.40;100527.19;5016199;28;20210;-78
2023/05/02 02:30:53;;;;;;;15.23;13.70;;;;;;;10.58;97.62;100525.47;5014779;28;20203;-79
2023/05/02 02:33:24;;;;;;;14.20;12.93;;;;;;;10.51;98.34;100523.88;5015824;28;20258;-78
2023/05/02 02:36:00;;;;;;;14.20;13.00;;;;;;;10.48;99.53;100498.69;5015656;28;20207;-78
2023/05/02 02:38:32;;;;;;;15.30;13.90;;;;;;;10.52;100.00;100466.44;5015618;28;20206;-78
2023/05/02 02:41:06;;;;;;;15.30;13.90;;;;;;;10.42;100.00;100461.41;5014846;28;20223;-79
2023/05/02 02:43:38;;;;;;;16.87;15.17;;;;;;;10.40;100.00;100458.81;5014898;28;20672;-78
2023/05/02 02:46:19;;;;;;;17.33;15.53;;;;;;;10.33;100.00;100441.56;5014913;28;20245;-78
2023/05/02 02:48:53;;;;;;;16.27;14.77;;;;;;;10.32;100.00;100430.25;5014972;28;20238;-77
2023/05/02 02:51:28;;;;;;;17.17;14.90;;;;;;;10.27;100.00;100429.47;5015151;28;20186;-79
2023/05/02 02:54:01;;;;;;;18.30;16.50;;;;;;;10.27;100.00;100424.25;5014972;28;20225;-78
2023/05/02 02:56:36;;;;;;;18.60;16.90;;;;;;;10.33;100.00;100431.97;5015285;28;20213;-78
2023/05/02 02:59:14;;;;;;;19.37;15.43;;;;;;;10.34;100.00;100446.72;5015061;28;20202;-79
2023/05/02 03:01:46;;;;;;;17.80;16.23;;;;;;;10.30;100.00;100444.22;5015889;28;20258;-80
2023/05/02 03:04:14;;;;;;;16.57;14.73;;;;;;;10.33;100.00;100445.03;5016265;28;20234;-80
2023/05/02 03:06:42;;;;;;;16.40;15.00;;;;;;;10.40;100.00;100445.75;5016570;28;20214;-78
2023/05/02 03:09:15;;;;;;;17.40;15.47;;;;;;;10.49;100.00;100461.28;5016740;28;20237;-80
2023/05/02 03:11:41;;;;;;;17.20;15.60;;;;;;;10.38;100.00;100465.81;5016048;28;20267;-79
2023/05/02 03:14:09;;;;;;;18.43;16.27;;;;;;;10.36;100.00;100464.13;5015740;28;20223;-78
2023/05/02 03:16:36;;;;;;;19.30;17.60;;;;;;;10.38;100.00;100486.69;5015800;28;20302;-79
2023/05/02 03:19:03;;;;;;;18.13;16.43;;;;;;;10.48;100.00;100503.91;5015529;28;20268;-78
2023/05/02 03:21:31;;;;;;;21.23;19.07;;;;;;;10.42;100.00;100517.06;5015037;28;20575;-79
2023/05/02 03:24:00;;;;;;;21.73;19.33;;;;;;;10.47;100.00;100509.16;5014647;28;20238;-80
2023/05/02 03:26:26;;;;;;;21.30;19.03;;;;;;;10.53;100.00;100509.91;5015546;28;20207;-79
2023/05/02 03:28:53;;;;;;;22.27;20.27;;;;;;;10.60;100.00;100509.81;5015320;28;20207;-79
2023/05/02 03:31:20;;;;;;;20.63;18.73;;;;;;;10.62;100.00;100502.81;5014922;28;20670;-79
2023/05/02 03:33:46;;;;;;;21.20;19.07;;;;;;;10.68;100.00;100518.34;5014987;28;20227;-79
2023/05/02 03:36:13;;;;;;;20.70;18.60;;;;;;;10.75;100.00;100540.84;5014711;28;20203;-78
2023/05/02 03:38:39;;;;;;;20.27;18.23;;;;;;;10.84;100.00;100555.47;5014178;28;20261;-79
2023/05/02 03:41:07;;;;;;;19.37;17.63;;;;;;;10.90;100.00;100571.94;5013858;28;20207;-79
2023/05/02 03:43:33;;;;;;;18.73;17.03;;;;;;;10.77;100.00;100580.00;5015278;28;20226;-80
2023/05/02 03:46:05;;;;;;;19.33;17.43;;;;;;;10.66;100.00;100572.34;5015754;28;20230;-79
2023/05/02 03:48:31;;;;;;;18.57;16.87;;;;;;;10.70;100.00;100574.00;5020268;28;20206;-79
2023/05/02 03:51:01;;;;;;;19.10;17.20;;;;;;;10.70;100.00;100574.00;5026344;28;20199;-80
2023/05/02 03:53:27;;;;;;;20.13;17.57;;;;;;;10.58;100.00;100572.47;5027776;28;20224;-80
2023/05/02 03:55:54;;;;;;;20.33;18.23;;;;;;;10.63;100.00;100551.53;5029735;28;20264;-81
2023/05/02 03:58:22;;;;;;;19.47;17.07;;;;;;;10.52;100.00;100546.47;5017508;28;20213;-80
2023/05/02 04:00:51;;;;;;;20.10;18.00;;;;;;;10.49;100.00;100546.53;5018238;28;20215;-80
2023/05/02 04:03:18;;;;;;;19.43;17.57;;;;;;;10.54;100.00;100536.88;5018005;28;20324;-81
2023/05/02 04:05:44;;;;;;;23.57;18.30;;;;;;;10.47;100.00;100533.50;5016240;28;20207;-80
2023/05/02 04:08:10;;;;;;;19.67;17.57;;;;;;;10.46;100.00;100520.47;5017684;28;20242;-79
2023/05/02 04:10:37;;;;;;;19.93;17.97;;;;;;;10.40;100.00;100523.19;5016869;28;20206;-80
2023/05/02 04:13:03;;;;;;;19.23;17.43;;;;;;;10.43;100.00;100516.19;5018609;28;20215;-80
2023/05/02 04:15:31;;;;;;;19.90;17.20;;;;;;;10.42;100.00;100516.19;5020139;28;20222;-81
2023/05/02 04:17:58;;;;;;;19.50;17.50;;;;;;;10.44;100.00;100522.25;5017850;28;20206;-81
2023/05/02 04:20:24;;;;;;;21.93;17.83;;;;;;;10.38;100.00;100530.19;5016351;28;20219;-81
2023/05/02 04:22:51;;;;;;;22.63;18.00;;;;;;;10.42;100.00;100519.66;5016421;28;20731;-80
2023/05/02 04:25:17;;;;;;;18.97;17.03;;;;;;;10.57;100.00;100528.16;5021907;23;20235;-85
2023/05/02 04:27:44;;;;;;;18.83;15.93;;;;;;;10.51;100.00;100550.84;5000725;28;20250;-84
2023/05/02 04:30:10;;;;;;;19.03;16.43;;;;;;;10.42;100.00;100550.13;5012393;28;20211;-84
2023/05/02 04:32:39;;;;;;;18.17;16.33;;;;;;;10.32;100.00;100529.41;5005951;28;20208;-85
2023/05/02 04:35:06;;;;;;;17.77;15.87;;;;;;;10.41;100.00;100523.19;5002533;28;20233;-83
2023/05/02 04:37:33;;;;;;;18.23;16.17;;;;;;;10.55;100.00;100538.59;5004257;28;20232;-82
2023/05/02 04:39:59;;;;;;;17.43;15.63;;;;;;;10.57;100.00;100556.84;5001981;28;20221;-82
2023/05/02 04:42:26;;;;;;;19.07;15.73;;;;;;;10.58;100.00;100564.63;5001000;28;20235;-84
2023/05/02 04:44:52;;;;;;;18.80;16.87;;;;;;;10.50;100.00;100566.50;5005219;28;20235;-82
2023/05/02 04:47:19;;;;;;;25.50;17.93;;;;;;;10.49;100.00;100572.63;5004858;28;20212;-82
2023/05/02 04:49:46;;;;;;;19.10;16.87;;;;;;;10.48;100.00;100571.75;5006495;28;20215;-84
2023/05/02 04:52:13;;;;;;;24.80;17.37;;;;;;;10.58;100.00;100561.16;5002169;28;20208;-82
2023/05/02 04:54:39;;;;;;;21.13;17.77;;;;;;;10.53;100.00;100564.72;4999686;28;20680;-82
2023/05/02 04:57:06;;;;;;;19.57;17.50;;;;;;;10.51;100.00;100565.66;5005545;28;20208;-83
2023/05/02 04:59:34;;;;;;;19.70;17.70;;;;;;;10.40;100.00;100557.13;5012577;28;20625;-84
2023/05/02 05:02:00;;;;;;;22.87;16.20;;;;;;;10.48;100.00;100550.03;5024931;28;20231;-83
2023/05/02 05:04:27;;;;;;;20.97;17.90;;;;;;;10.54;100.00;100552.53;5025322;28;20605;-84
2023/05/02 05:06:54;;;;;;;22.13;17.90;;;;;;;10.46;100.00;100565.69;5022821;28;20558;-84
2023/05/02 05:09:21;;;;;;;19.17;17.03;;;;;;;10.53;100.00;100576.91;5021891;28;20219;-82
2023/05/02 05:11:47;;;;;;;19.67;17.63;;;;;;;10.52;100.00;100577.78;5022999;28;20210;-85
2023/05/02 05:14:13;;;;;;;20.90;16.63;;;;;;;10.58;100.00;100577.69;5021898;28;20229;-82
2023/05/02 05:16:40;;;;;;;20.90;16.67;;;;;;;10.44;100.00;100582.28;5020334;28;20218;-84
2023/05/02 05:19:06;;;;;;;19.70;17.10;;;;;;;10.48;100.00;100582.19;5021709;28;20233;-83
2023/05/02 05:21:32;;;;;;;17.60;15.73;;;;;;;10.58;100.00;100589.88;5023912;28;20203;-83
2023/05/02 05:24:01;;;;;;;17.67;15.80;;;;;;;10.43;100.00;100593.63;5020359;28;20268;-84
2023/05/02 05:26:27;;;;;;;19.20;15.77;;;;;;;10.49;100.00;100585.69;5020857;28;20207;-82
2023/05/02 05:28:53;;;;;;;19.23;15.40;;;;;;;10.63;100.00;100593.28;5021473;28;20214;-83
2023/05/02 05:31:20;;;;;;;16.53;14.83;;;;;;;10.58;100.00;100589.88;5018731;28;20211;-82
2023/05/02 05:33:47;;;;;;;16.87;15.03;;;;;;;10.57;100.00;100596.88;5021972;28;20237;-82
2023/05/02 05:36:14;;;;;;;16.20;13.43;;;;;;;10.67;100.00;100608.88;5019372;28;20206;-81
2023/05/02 05:38:40;;;;;;;13.87;12.53;;;;;;;10.57;100.00;100625.56;5018935;28;20272;-85
2023/05/02 05:41:09;;;;;;;12.90;11.40;;;;;;;10.51;100.00;100623.91;5019725;28;20206;-81
2023/05/02 05:43:36;;;;;;;13.77;12.40;;;;;;;10.52;100.00;100612.59;5021880;28;20894;-82
2023/05/02 05:46:03;;;;;;;13.83;12.33;;;;;;;10.65;100.00;100618.47;5020567;28;20238;-84
2023/05/02 05:48:29;;;;;;;13.33;12.03;;;;;;;10.72;100.00;100630.56;5020650;28;20692;-81
2023/05/02 05:50:55;;;;;;;13.47;11.70;;;;;;;10.69;100.00;100643.66;5015717;28;20266;-87
2023/05/02 05:53:22;;;;;;;13.90;12.57;;;;;;;10.68;100.00;100639.31;4998936;28;20200;-83
2023/05/02 05:55:48;;;;;;;15.07;13.57;;;;;;;10.57;100.00;100645.59;5001516;28;20247;-84
2023/05/02 05:58:16;;;;;;;11.97;10.70;;;;;;;10.43;100.00;100651.03;4999498;28;20210;-83
2023/05/02 06:00:42;;;;;;;11.47;10.43;;;;;;;10.55;100.00;100668.25;5008469;28;20217;-84
2023/05/02 06:03:08;;;;;;;7.17;6.53;;;;;;;10.60;100.00;100706.44;5020717;28;20238;-85
2023/05/02 06:05:35;;;;;;;4.30;3.90;;;;;;;10.48;100.00;100758.81;5021155;28;20305;-84
2023/05/02 06:08:01;;;;;;;4.10;3.80;;;;;;;10.32;100.00;100795.53;5020380;28;20210;-83
2023/05/02 06:10:28;;;;;;;3.90;3.27;;;;;;;10.11;100.00;100821.88;5019205;28;20206;-83
2023/05/02 06:12:54;;;;;;;3.40;3.10;;;;;;;9.88;100.00;100819.47;5020903;28;20203;-84
2023/05/02 06:15:22;;;;;;;2.97;2.70;;;;;;;9.65;100.00;100801.44;5019221;28;20230;-82
2023/05/02 06:17:48;;;;;;;3.50;2.50;;;;;;;9.44;100.00;100795.56;5020596;28;20242;-84
2023/05/02 06:20:14;;;;;;;3.20;2.10;;;;;;;9.32;100.00;100803.47;5020097;28;20571;-85
2023/05/02 06:22:41;;;;;;;2.67;2.10;;;;;;;9.21;100.00;100808.75;5026503;28;20222;-86
2023/05/02 06:25:08;;;;;;;2.37;2.07;;;;;;;9.25;100.00;100813.06;5029811;28;20227;-85
2023/05/02 06:27:37;;;;;;;4.50;2.23;;;;;;;9.23;100.00;100808.75;5032173;28;20731;-87
2023/05/02 06:30:05;;;;;;;3.47;2.53;;;;;;;9.07;100.00;100818.41;5023380;28;20213;-84
2023/05/02 06:32:33;;;;;;;2.50;2.30;;;;;;;8.86;100.00;100837.63;5021528;28;20266;-80
2023/05/02 06:35:00;;;;;;;4.63;2.63;;;;;;;8.73;100.00;100844.66;5020994;28;20227;-80
2023/05/02 06:37:26;;;;;;;4.47;2.90;;;;;;;8.81;100.00;100819.44;5017110;28;20265;-79
2023/05/02 06:39:52;;;;;;;4.97;3.50;;;;;;;8.80;100.00;100815.13;5018138;28;20753;-82
2023/05/02 06:42:18;;;;;;;4.00;3.47;;;;;;;9.03;100.00;100830.59;5017109;28;20226;-85
2023/05/02 06:44:45;;;;;;;4.77;2.93;;;;;;;8.95;100.00;100853.19;5019578;28;20218;-85
2023/05/02 06:47:11;;;;;;;4.90;3.53;;;;;;;8.99;100.00;100872.28;5019295;28;20210;-84
2023/05/02 06:49:39;;;;;;;4.13;3.23;;;;;;;8.81;100.00;100855.88;5018051;28;20211;-87
2023/05/02 06:52:05;;;;;;;6.50;3.83;;;;;;;8.91;100.00;100849.75;5019980;28;20213;-87
2023/05/02 06:54:31;;;;;;;5.70;3.80;;;;;;;9.02;100.00;100886.16;5016991;28;20214;-82
2023/05/02 06:56:59;;;;;;;4.63;3.47;;;;;;;8.85;100.00;100896.63;5019520;28;20210;-81
2023/05/02 06:59:26;;;;;;;6.30;3.70;;;;;;;9.02;100.00;100914.78;5016214;28;20203;-80
2023/05/02 07:01:52;;;;;;;6.53;3.63;;;;;;;8.98;100.00;100957.34;5015185;28;20279;-82
2023/05/02 07:04:18;;;;;;;5.60;4.53;;;;;;;9.04;100.00;100987.69;5015508;28;20285;-82
2023/05/02 07:06:46;;;;;;;10.93;4.37;;;;;;;9.18;100.00;101011.06;5015229;28;20282;-82
2023/05/02 07:09:13;;;;;;;7.83;3.67;;;;;;;9.13;99.19;101043.19;5017603;28;20204;-81
2023/05/02 07:11:39;;;;;;;6.43;3.63;;;;;;;9.10;97.26;101082.28;4995755;28;20234;-83
2023/05/02 07:14:06;;;;;;;6.10;4.30;;;;;;;9.19;98.45;101091.81;4996543;28;20228;-83
2023/05/02 07:16:32;;;;;;;8.37;3.90;;;;;;;9.34;98.88;101080.50;4996199;28;20211;-82
2023/05/02 07:19:00;;;;;;;7.20;4.37;;;;;;;9.31;97.18;101102.19;4996256;28;20687;-82
2023/05/02 07:21:27;;;;;;;6.97;3.90;;;;;;;9.60;97.03;101103.84;4994659;28;20214;-83
2023/05/02 07:23:56;;;;;;;7.43;4.67;;;;;;;9.83;95.63;101134.13;4995992;28;20227;-83
2023/05/02 07:26:24;;;;;;;9.43;3.20;;;;;;;10.09;94.52;101165.34;4993905;28;20211;-81
2023/05/02 07:28:50;;;;;;;6.33;3.70;;;;;;;10.29;92.79;101197.38;4995049;28;20206;-83
2023/05/02 07:34:38;;;;;;;7.60;3.60;;;;;;;10.05;90.98;101261.00;5013471;23;20241;-78
2023/05/02 07:37:05;;;;;;;6.60;3.33;;;;;;;10.00;89.72;101291.41;5019884;28;20268;-78
2023/05/02 07:39:33;;;;;;;8.67;4.20;;;;;;;10.19;91.97;101267.88;5021762;28;20260;-78
2023/05/02 07:41:59;;;;;;;13.00;4.50;;;;;;;10.55;96.02;101192.94;5027543;28;20202;-77
2023/05/02 07:44:25;;;;;;;13.87;4.70;;;;;;;10.71;94.08;101192.78;5032907;28;20226;-79
2023/05/02 07:46:52;;;;;;;11.17;4.87;;;;;;;10.83;90.94;101248.44;5033221;28;21392;-79
2023/05/02 07:49:19;;;;;;;8.67;3.70;;;;;;;10.68;86.74;101307.72;5027279;28;20665;-78
2023/05/02 07:51:45;;;;;;;16.23;4.33;;;;;;;10.67;87.92;101358.19;5023963;28;20676;-79
2023/05/02 07:54:15;;;;;;;12.90;4.33;;;;;;;10.01;85.46;101401.84;5031020;28;20191;-80
2023/05/02 07:56:43;;;;;;;9.53;4.33;;;;;;;10.23;88.74;101372.25;5028377;28;20195;-78
2023/05/02 07:59:10;;;;;;;7.33;4.03;;;;;;;10.34;88.85;101365.25;5025683;28;20218;-81
2023/05/02 08:01:36;;;;;;;10.00;4.83;;;;;;;10.47;87.69;101370.47;5031659;28;20207;-80
2023/05/02 08:04:03;;;;;;;9.47;4.43;;;;;;;9.93;82.89;101472.28;5031711;28;20230;-78
2023/05/02 08:06:29;;;;;;;7.73;4.17;;;;;;;10.15;81.21;101507.06;5032432;28;20263;-81
2023/05/02 08:08:56;;;;;;;7.93;4.97;;;;;;;9.86;80.65;101548.75;5023489;28;20230;-80
2023/05/02 08:11:24;;;;;;;11.30;4.17;;;;;;;10.08;81.17;101571.38;5022243;28;20674;-80
2023/05/02 08:13:52;;;;;;;5.67;3.70;;;;;;;9.95;79.23;101606.16;5023614;28;20615;-82
2023/05/02 08:16:18;;;;;;;9.67;4.17;;;;;;;9.93;79.31;101624.41;5027176;28;20202;-80
2023/05/02 08:18:45;;;;;;;9.60;4.10;;;;;;;9.97;79.92;101612.25;5017342;28;20716;-76
2023/05/02 08:21:11;;;;;;;10.10;4.03;;;;;;;9.89;79.97;101624.38;5015988;28;20207;-77
2023/05/02 08:23:38;;;;;;;8.70;4.33;;;;;;;9.78;79.66;101633.94;5015989;28;20226;-77
2023/05/02 08:26:05;;;;;;;11.20;4.30;;;;;;;9.83;80.30;101627.88;5015455;28;20265;-78
2023/05/02 08:28:31;;;;;;;11.97;4.40;;;;;;;9.79;79.92;101641.75;5015773;28;20241;-78
2023/05/02 08:30:59;;;;;;;7.70;4.27;;;;;;;9.58;79.85;101645.16;5030746;28;20202;-78
2023/05/02 08:33:25;;;;;;;10.30;4.40;;;;;;;9.66;80.24;101632.16;5035715;28;20206;-77
2023/05/02 08:35:52;;;;;;;10.53;5.00;;;;;;;9.57;79.32;101652.94;5035491;28;20217;-77
2023/05/02 08:38:18;;;;;;;7.60;4.83;;;;;;;9.66;78.12;101676.47;5035745;28;20230;-78
2023/05/02 08:40:45;;;;;;;13.30;4.63;;;;;;;9.65;78.27;101695.56;5035462;28;20274;-77
2023/05/02 08:43:12;;;;;;;10.03;4.57;;;;;;;9.57;77.45;101712.91;5036008;28;20236;-78
2023/05/02 08:45:41;;;;;;;10.00;4.77;;;;;;;9.66;76.56;101724.25;5035367;28;20206;-78
2023/05/02 08:48:10;;;;;;;7.27;4.97;;;;;;;9.66;76.79;101726.00;5035103;28;20269;-77
2023/05/02 08:50:38;;;;;;;10.80;4.90;;;;;;;9.74;78.06;101719.94;5034864;28;20209;-78
2023/05/02 08:53:05;;;;;;;9.43;4.43;;;;;;;9.71;77.65;101706.03;5034848;28;20206;-79
2023/05/02 08:55:33;;;;;;;12.63;5.20;;;;;;;9.67;77.16;101727.72;5034881;28;20608;-76
2023/05/02 08:58:00;;;;;;;17.00;4.00;;;;;;;9.64;77.24;101743.38;5034821;28;20232;-77
2023/05/02 09:00:27;;;;;;;7.70;3.60;;;;;;;9.63;77.08;101745.13;5034661;28;20256;-76
2023/05/02 09:03:06;;;;;;;6.80;3.90;;;;;;;9.47;77.84;101738.91;5034506;28;20210;-76
2023/05/02 09:05:40;;;;;;;12.57;3.90;;;;;;;9.63;75.97;101750.31;5034678;28;20752;-77
2023/05/02 09:08:07;;;;;;;7.67;3.27;;;;;;;9.59;75.71;101777.22;5034296;28;20707;-77
2023/05/02 09:10:35;;;;;;;7.83;3.40;;;;;;;9.46;76.67;101767.59;5034448;28;20210;-77
2023/05/02 09:13:32;;;;;;;8.83;3.07;;;;;;;9.32;76.52;101783.97;5034451;28;20212;-77
2023/05/02 09:15:59;;;;;;;10.50;3.70;;;;;;;9.42;76.11;101792.75;5034274;28;20673;-77
2023/05/02 09:18:29;;;;;;;9.80;3.43;;;;;;;9.43;74.94;101783.19;5038272;28;20773;-78
2023/05/02 09:20:58;;;;;;;7.13;3.63;;;;;;;9.40;76.32;101785.78;5037088;28;20210;-77
2023/05/02 09:23:33;;;;;;;5.43;3.30;;;;;;;9.40;75.23;101791.88;5036869;28;20236;-77
2023/05/02 09:26:00;;;;;;;8.47;3.20;;;;;;;9.43;74.57;101810.09;5036847;28;20301;-80
2023/05/02 09:28:39;;;;;;;6.80;3.70;;;;;;;9.39;74.37;101818.78;5035504;28;20775;-77
2023/05/02 09:31:07;;;;;;;6.73;4.00;;;;;;;9.33;74.31;101832.63;5033810;28;20206;-77
2023/05/02 09:33:34;;;;;;;5.87;3.07;;;;;;;9.40;74.80;101817.91;5036909;28;20206;-80
2023/05/02 09:36:02;;;;;;;9.17;4.77;;;;;;;9.33;74.14;101839.56;5038415;28;20209;-79
2023/05/02 09:38:29;;;;;;;6.47;3.50;;;;;;;9.25;74.27;101843.84;5037476;28;20244;-78
2023/05/02 09:40:55;;;;;;;8.07;3.33;;;;;;;9.33;74.67;101839.56;5039626;28;20202;-77
2023/05/02 09:43:22;;;;;;;7.27;3.77;;;;;;;9.22;73.50;101851.66;5039741;28;20226;-80
2023/05/02 09:45:56;;;;;;;9.13;3.57;;;;;;;9.17;74.69;101848.09;5040498;28;20209;-81
2023/05/02 09:48:23;;;;;;;7.33;4.37;;;;;;;9.09;75.02;101850.63;5035432;28;20233;-79
2023/05/02 09:50:49;;;;;;;7.23;5.13;;;;;;;9.02;75.11;101849.72;5036744;28;20202;-79
2023/05/02 09:53:17;;;;;;;9.63;4.77;;;;;;;8.79;74.97;101843.38;5039713;28;20550;-78
2023/05/02 09:55:44;;;;;;;7.63;4.20;;;;;;;8.76;76.07;101833.81;5036126;28;20257;-79
2023/05/02 09:58:21;;;;;;;6.53;4.90;;;;;;;8.95;76.78;101799.28;5038378;28;20752;-79
2023/05/02 10:00:47;;;;;;;10.70;6.00;;;;;;;9.06;77.18;101780.31;5040249;28;20204;-80
2023/05/02 10:03:17;;;;;;;6.13;4.70;;;;;;;8.96;75.17;101805.38;5038092;28;20198;-79
2023/05/02 10:05:44;;;;;;;7.07;4.33;;;;;;;8.99;74.01;101830.56;5034115;28;20215;-77
2023/05/02 10:08:12;;;;;;;6.60;4.10;;;;;;;8.97;74.35;101848.78;5033348;28;20224;-77
2023/05/02 10:10:43;;;;;;;8.93;3.90;;;;;;;9.10;74.05;101855.88;5032924;28;20264;-76
2023/05/02 10:13:12;;;;;;;12.20;5.23;;;;;;;9.24;74.30;101857.75;5033646;28;20217;-77
2023/05/02 10:15:44;;;;;;;6.27;3.73;;;;;;;9.32;73.82;101858.69;5021588;28;20235;-81
2023/05/02 10:18:17;;;;;;;5.73;3.60;;;;;;;9.14;72.38;101901.94;5038576;28;20236;-81
2023/05/02 10:20:49;;;;;;;12.20;3.67;;;;;;;9.32;71.70;101926.44;5038600;28;20198;-82
2023/05/02 10:23:16;;;;;;;9.63;4.40;;;;;;;9.35;71.58;101929.06;5039081;28;20210;-80
2023/05/02 10:25:44;;;;;;;7.63;4.30;;;;;;;9.26;71.83;101950.69;5023096;23;20270;-86
2023/05/02 10:28:11;;;;;;;8.03;3.90;;;;;;;9.21;72.04;101952.34;4982793;28;20722;-84
2023/05/02 10:30:39;;;;;;;7.17;3.97;;;;;;;9.12;71.69;101950.53;4999952;28;20214;-84
2023/05/02 10:33:05;;;;;;;4.93;3.90;;;;;;;9.24;72.07;101948.94;5006066;28;20677;-84
2023/05/02 10:35:50;;;;;;;6.07;3.73;;;;;;;9.28;72.08;101967.22;5001706;28;20231;-84
2023/05/02 10:38:35;;;;;;;3.83;3.30;;;;;;;9.07;72.02;101956.53;5001351;28;20685;-84
2023/05/02 10:42:07;;;;;;;4.70;3.50;;;;;;;9.22;72.09;101955.88;5003387;28;20214;-86
2023/05/02 10:48:38;;;;;;;6.50;3.63;;;;;;;9.50;70.93;101964.84;4960810;28;20220;-84
2023/05/02 10:54:45;;;;;;;7.50;3.93;;;;;;;9.71;71.47;101957.22;4976271;28;20226;-84
2023/05/02 10:57:14;;;;;;;7.07;4.07;;;;;;;9.73;70.88;101970.25;5000448;28;20280;-83
2023/05/02 11:00:24;;;;;;;5.40;4.00;;;;;;;9.97;70.80;101959.19;4996437;28;20231;-84
2023/05/02 11:02:50;;;;;;;5.93;4.37;;;;;;;10.10;70.11;101986.22;4934791;28;20208;-81
2023/05/02 11:05:17;;;;;;;6.83;3.50;;;;;;;10.13;69.36;101989.75;4981169;28;20240;-82
2023/05/02 11:07:44;;;;;;;4.13;3.60;;;;;;;10.06;68.72;102023.59;4982865;28;20228;-84
2023/05/02 11:10:27;;;;;;;7.37;3.70;;;;;;;9.82;68.72;102056.41;4985482;28;20307;-82
2023/05/02 11:12:56;;;;;;;4.30;2.87;;;;;;;10.01;66.44;102082.66;4994956;28;20241;-82
2023/05/02 11:15:58;;;;;;;4.30;2.57;;;;;;;9.86;66.53;102110.34;4993892;28;20224;-81
2023/05/02 11:18:25;;;;;;;5.70;3.30;;;;;;;9.96;65.46;102129.59;4993204;28;20240;-83
2023/05/02 11:20:51;;;;;;;6.57;3.40;;;;;;;9.70;67.14;102140.59;4988619;28;20212;-81
2023/05/02 11:23:42;;;;;;;6.73;2.93;;;;;;;9.86;66.11;102131.22;4990238;28;20204;-81
2023/05/02 11:26:22;;;;;;;5.57;3.10;;;;;;;10.00;65.84;102140.94;4979882;28;20243;-81
2023/05/02 11:28:57;;;;;;;6.73;3.63;;;;;;;10.13;66.20;102154.13;4979176;28;20621;-82
2023/05/02 11:32:19;;;;;;;6.20;2.83;;;;;;;10.23;65.49;102143.81;4992827;28;20241;-83
2023/05/02 11:34:56;;;;;;;3.93;2.90;;;;;;;10.33;66.06;102156.09;4976762;28;20283;-83
2023/05/02 11:37:47;;;;;;;4.43;2.50;;;;;;;9.90;65.84;102181.69;4981211;28;20208;-80
2023/05/02 11:40:48;;;;;;;3.47;3.17;;;;;;;10.02;63.99;102183.56;4984250;28;20231;-81